EFKE/KEM METAR and TAF weather

Enter ICAO airport designator
Station Type Date Time Source
EFKE METAR 2024/06/16 00:20 UTC NOAA

EFKE 160020Z AUTO 18003KT 9999 BKN013 07/06 Q1013


Station Type Date Time Source
EFKE Decoded METAR 2024/06/16 00:20 UTC NOAA

Kemi, Finland (EFKE) 65-47N 024-35E
Jun 15, 2024 - 08:20 PM EDT / 2024.06.16 0020 UTC
Wind: from the S (180 degrees) at 3 MPH (3 KT):0
Visibility: greater than 7 mile(s):0
Sky conditions: mostly cloudy
Temperature: 44 F (7 C)
Dew Point: 42 F (6 C)
Relative Humidity: 93%
Pressure (altimeter): 29.91 in. Hg (1013 hPa)
ob: EFKE 160020Z AUTO 18003KT 9999 BKN013 07/06 Q1013
cycle: 0

Station Type Date Time Source
EFKE TAF 2015/01/12 15:42 UTC NOAA